Time;durP1;ratioP1;P1;durP2;ratioP2;P2;SDS_P1;SDS_P2;PMS_P1;PMS_P2;Temp;Humidity;BMP_temperature;BMP_pressure;BME280_temperature;BME280_humidity;BME280_pressure;Samples;Min_cycle;Max_cycle;Signal;HPM_P1;HPM_P2
2021/08/18 00:01:51;;;;;;;9.43;6.33;;;18.60;1.00;;;;;;5092223;28;20449;-80
2021/08/18 00:04:19;;;;;;;9.93;6.63;;;18.70;1.00;;;;;;5091574;28;20450;-80
2021/08/18 00:06:49;;;;;;;8.93;6.03;;;18.60;1.00;;;;;;5091652;28;20438;-79
2021/08/18 00:09:17;;;;;;;11.60;6.53;;;18.60;1.00;;;;;;5077502;28;20446;-81
2021/08/18 00:11:46;;;;;;;10.57;6.73;;;18.60;1.00;;;;;;5089946;28;20450;-80
2021/08/18 00:14:15;;;;;;;9.77;6.97;;;18.60;1.00;;;;;;5091127;28;20481;-80
2021/08/18 00:16:43;;;;;;;10.27;7.40;;;18.70;1.00;;;;;;5091384;28;20554;-80
2021/08/18 00:19:11;;;;;;;10.17;6.20;;;18.60;1.00;;;;;;5090492;28;20929;-80
2021/08/18 00:21:39;;;;;;;9.60;6.90;;;18.70;1.00;;;;;;5091131;28;20491;-80
2021/08/18 00:24:09;;;;;;;12.30;6.33;;;18.70;1.00;;;;;;5073192;28;20869;-80
2021/08/18 00:26:37;;;;;;;10.77;7.30;;;18.60;1.00;;;;;;5091364;28;20434;-80
2021/08/18 00:29:05;;;;;;;11.03;6.70;;;18.70;1.00;;;;;;5091380;28;20511;-79
2021/08/18 00:31:33;;;;;;;8.23;6.50;;;18.80;1.00;;;;;;5090788;28;21009;-80
2021/08/18 00:34:02;;;;;;;10.03;6.57;;;18.70;1.00;;;;;;5091063;28;20503;-80
2021/08/18 00:36:30;;;;;;;10.63;8.00;;;18.70;1.00;;;;;;5072120;28;20901;-80
2021/08/18 00:38:58;;;;;;;8.43;5.20;;;18.60;1.00;;;;;;5090959;28;20493;-80
2021/08/18 00:41:28;;;;;;;10.07;6.83;;;18.70;1.00;;;;;;5090263;28;20499;-80
2021/08/18 00:43:56;;;;;;;9.47;5.90;;;18.60;1.00;;;;;;5090681;28;20469;-80
2021/08/18 00:46:24;;;;;;;11.57;6.23;;;18.60;1.00;;;;;;5089930;28;20472;-79
2021/08/18 00:48:52;;;;;;;9.40;6.20;;;18.60;1.00;;;;;;5090641;28;20452;-80
2021/08/18 00:51:20;;;;;;;13.00;8.00;;;18.50;1.00;;;;;;5071516;28;20506;-80
2021/08/18 00:53:49;;;;;;;12.37;6.70;;;18.40;1.00;;;;;;5091071;28;20473;-80
2021/08/18 00:56:18;;;;;;;10.13;7.17;;;18.50;1.00;;;;;;5089967;28;21045;-80
2021/08/18 00:58:47;;;;;;;11.40;7.23;;;18.50;1.00;;;;;;5072964;28;20450;-80
2021/08/18 01:01:15;;;;;;;14.80;8.83;;;18.50;1.00;;;;;;5089160;28;20465;-80
2021/08/18 01:03:43;;;;;;;17.10;8.53;;;18.60;1.00;;;;;;5091044;28;20469;-80
2021/08/18 01:06:12;;;;;;;8.17;6.30;;;18.50;1.00;;;;;;5089494;28;20433;-80
2021/08/18 01:08:40;;;;;;;11.90;7.20;;;18.50;1.00;;;;;;5072571;28;20949;-80
2021/08/18 01:11:08;;;;;;;15.57;8.43;;;18.60;1.00;;;;;;5088609;28;20452;-80
2021/08/18 01:13:36;;;;;;;12.87;7.83;;;18.50;1.00;;;;;;5090381;28;20453;-79
2021/08/18 01:16:06;;;;;;;13.00;7.20;;;18.50;1.00;;;;;;5089607;28;20464;-81
2021/08/18 01:18:34;;;;;;;17.03;7.80;;;18.60;1.00;;;;;;5090568;28;20452;-80
2021/08/18 01:21:03;;;;;;;10.00;6.13;;;18.60;1.00;;;;;;5089163;28;20433;-79
2021/08/18 01:23:31;;;;;;;11.77;7.40;;;18.70;1.00;;;;;;5090382;28;20504;-80
2021/08/18 01:25:59;;;;;;;13.17;8.20;;;18.70;1.00;;;;;;5070985;28;20525;-80
2021/08/18 01:28:29;;;;;;;14.77;8.20;;;18.70;1.00;;;;;;5072254;28;20449;-81
2021/08/18 01:30:57;;;;;;;12.70;7.47;;;18.70;1.00;;;;;;5089306;28;20445;-80
2021/08/18 01:33:25;;;;;;;10.83;6.73;;;18.80;1.00;;;;;;5090986;28;20552;-80
2021/08/18 01:35:54;;;;;;;11.33;7.53;;;18.80;1.00;;;;;;5089293;28;20489;-80
2021/08/18 01:38:23;;;;;;;10.17;7.00;;;18.70;1.00;;;;;;5090514;28;20426;-80
2021/08/18 01:40:52;;;;;;;13.97;8.03;;;18.80;1.00;;;;;;5089131;28;20446;-80
2021/08/18 01:43:22;;;;;;;12.40;7.37;;;18.80;1.00;;;;;;5089783;28;20461;-80
2021/08/18 01:45:52;;;;;;;14.77;8.63;;;18.80;1.00;;;;;;5089914;28;20430;-80
2021/08/18 01:48:23;;;;;;;13.23;7.93;;;18.70;1.00;;;;;;5071794;28;20453;-80
2021/08/18 01:50:53;;;;;;;15.03;7.97;;;18.60;1.00;;;;;;5088916;28;20445;-80
2021/08/18 01:53:24;;;;;;;10.10;6.90;;;18.60;1.00;;;;;;5089746;28;20468;-79
2021/08/18 01:55:52;;;;;;;12.30;7.90;;;18.60;1.00;;;;;;5089893;28;20506;-81
2021/08/18 01:58:20;;;;;;;14.50;7.90;;;18.40;1.00;;;;;;5089720;28;20452;-80
2021/08/18 02:00:49;;;;;;;11.20;7.20;;;18.30;1.00;;;;;;5088943;28;20444;-80
2021/08/18 02:03:19;;;;;;;10.10;7.80;;;18.30;1.00;;;;;;5089090;28;20509;-81
2021/08/18 02:05:47;;;;;;;14.27;7.87;;;18.20;1.00;;;;;;5070719;28;20459;-80
2021/08/18 02:08:15;;;;;;;11.07;6.90;;;18.30;1.00;;;;;;5085042;28;21039;-80
2021/08/18 02:10:43;;;;;;;11.23;8.13;;;18.40;1.00;;;;;;5087815;28;20962;-80
2021/08/18 02:13:12;;;;;;;12.47;8.53;;;18.40;1.00;;;;;;5088470;28;20473;-81
2021/08/18 02:15:40;;;;;;;13.87;7.33;;;18.50;1.00;;;;;;5089481;28;20495;-80
2021/08/18 02:18:10;;;;;;;15.60;9.10;;;18.50;1.00;;;;;;5089094;28;20530;-80
2021/08/18 02:20:40;;;;;;;12.27;7.77;;;18.50;1.00;;;;;;5089123;28;20456;-81
2021/08/18 02:23:08;;;;;;;14.87;9.10;;;18.30;1.00;;;;;;5070724;28;20679;-80
2021/08/18 02:25:37;;;;;;;13.50;8.13;;;18.20;1.00;;;;;;5090725;28;20448;-80
2021/08/18 02:28:06;;;;;;;12.00;9.40;;;18.30;1.00;;;;;;5096145;28;20533;-80
2021/08/18 02:30:36;;;;;;;13.03;8.23;;;18.30;1.00;;;;;;5109926;28;20536;-80
2021/08/18 02:33:05;;;;;;;14.90;7.37;;;18.40;1.00;;;;;;5109230;28;20456;-80
2021/08/18 02:35:34;;;;;;;9.77;7.37;;;18.50;1.00;;;;;;5111067;28;20631;-80
2021/08/18 02:38:04;;;;;;;11.87;8.57;;;18.40;1.00;;;;;;5113178;28;20464;-80
2021/08/18 02:40:33;;;;;;;14.90;6.90;;;18.40;1.00;;;;;;5113991;28;20507;-80
2021/08/18 02:43:01;;;;;;;11.50;8.20;;;18.50;1.00;;;;;;5107772;28;20608;-80
2021/08/18 02:45:31;;;;;;;10.50;6.87;;;18.50;1.00;;;;;;5075736;28;20449;-80
2021/08/18 02:47:59;;;;;;;10.47;6.20;;;18.50;1.00;;;;;;5092612;28;20992;-81
2021/08/18 02:50:30;;;;;;;12.33;8.83;;;18.50;1.00;;;;;;5092908;28;20445;-80
2021/08/18 02:52:58;;;;;;;10.90;7.10;;;18.40;1.00;;;;;;5091826;28;20995;-80
2021/08/18 02:55:29;;;;;;;15.50;8.50;;;18.30;1.00;;;;;;5093307;28;20433;-80
2021/08/18 02:57:58;;;;;;;9.87;7.43;;;18.30;1.00;;;;;;5092129;28;20481;-80
2021/08/18 03:00:26;;;;;;;11.70;6.80;;;18.30;1.00;;;;;;5093147;28;20520;-80
2021/08/18 03:02:55;;;;;;;10.90;5.70;;;18.30;1.00;;;;;;5092012;28;20805;-80
2021/08/18 03:05:24;;;;;;;14.53;7.13;;;18.40;1.00;;;;;;5093042;28;20438;-80
2021/08/18 03:07:52;;;;;;;11.77;6.97;;;18.50;1.00;;;;;;5073718;28;20452;-80
2021/08/18 03:10:20;;;;;;;9.80;5.97;;;18.50;1.00;;;;;;5092262;28;21155;-80
2021/08/18 03:12:50;;;;;;;9.47;6.10;;;18.40;1.00;;;;;;5090857;28;20465;-80
2021/08/18 03:15:18;;;;;;;11.87;6.87;;;18.40;1.00;;;;;;5074613;28;20903;-80
2021/08/18 03:17:46;;;;;;;10.17;6.67;;;18.40;1.00;;;;;;5092149;28;20480;-80
2021/08/18 03:20:15;;;;;;;8.70;6.03;;;18.40;1.00;;;;;;5074139;28;20502;-80
2021/08/18 03:22:43;;;;;;;8.03;5.23;;;18.40;1.00;;;;;;5091986;28;20464;-80
2021/08/18 03:25:11;;;;;;;9.70;6.10;;;18.40;1.00;;;;;;5092779;28;20478;-80
2021/08/18 03:27:40;;;;;;;8.27;5.97;;;18.40;1.00;;;;;;5091693;28;20486;-80
2021/08/18 03:30:11;;;;;;;8.87;5.50;;;18.40;1.00;;;;;;5091943;28;20449;-80
2021/08/18 03:32:39;;;;;;;8.43;5.57;;;18.40;1.00;;;;;;5091920;28;20472;-79
2021/08/18 03:35:08;;;;;;;9.03;6.07;;;18.50;1.00;;;;;;5092300;28;20487;-80
2021/08/18 03:37:36;;;;;;;8.33;5.47;;;18.50;1.00;;;;;;5091551;28;21004;-80
2021/08/18 03:40:06;;;;;;;8.13;5.30;;;18.30;1.00;;;;;;5092155;28;20433;-80
2021/08/18 03:42:34;;;;;;;7.90;6.17;;;18.20;1.00;;;;;;5091218;28;20898;-80
2021/08/18 03:45:02;;;;;;;6.63;4.77;;;18.20;1.00;;;;;;5091933;28;20503;-80
2021/08/18 03:47:31;;;;;;;8.77;5.17;;;18.20;1.00;;;;;;5091408;28;21047;-79
2021/08/18 03:50:00;;;;;;;7.33;5.60;;;18.20;1.00;;;;;;5091437;28;20453;-80
2021/08/18 03:52:28;;;;;;;8.80;5.27;;;18.30;1.00;;;;;;5091224;28;20481;-79
2021/08/18 03:54:56;;;;;;;7.80;5.23;;;18.30;1.00;;;;;;5073317;28;20448;-80
2021/08/18 03:57:24;;;;;;;7.27;5.00;;;18.30;1.00;;;;;;5091088;28;20464;-79
2021/08/18 03:59:52;;;;;;;6.97;4.17;;;18.40;1.00;;;;;;5091121;28;20433;-80
2021/08/18 04:02:20;;;;;;;8.43;4.47;;;18.40;1.00;;;;;;5091228;28;20513;-80
2021/08/18 04:04:50;;;;;;;7.63;5.17;;;18.40;1.00;;;;;;5091333;28;20459;-80
2021/08/18 04:07:18;;;;;;;6.27;4.20;;;18.30;1.00;;;;;;5090952;28;20810;-80
2021/08/18 04:09:46;;;;;;;7.17;4.50;;;18.30;1.00;;;;;;5089165;28;20452;-80
2021/08/18 04:12:14;;;;;;;5.53;4.00;;;18.30;1.00;;;;;;5090174;28;20465;-80
2021/08/18 04:14:42;;;;;;;8.87;5.30;;;18.20;1.00;;;;;;5090905;28;20515;-80
2021/08/18 04:17:10;;;;;;;6.60;5.40;;;18.10;1.00;;;;;;5090544;28;20493;-80
2021/08/18 04:19:39;;;;;;;6.80;4.20;;;17.90;1.00;;;;;;5071874;28;20445;-80
2021/08/18 04:22:09;;;;;;;6.80;4.37;;;17.90;1.00;;;;;;5072885;28;20490;-80
2021/08/18 04:24:37;;;;;;;6.87;4.50;;;18.10;1.00;;;;;;5090746;28;20900;-80
2021/08/18 04:27:06;;;;;;;6.70;4.07;;;18.10;1.00;;;;;;5091004;28;20486;-80
2021/08/18 04:29:34;;;;;;;6.03;4.40;;;18.10;1.00;;;;;;5072317;28;20449;-80
2021/08/18 04:32:02;;;;;;;7.33;4.20;;;18.00;1.00;;;;;;5091374;28;20535;-80
2021/08/18 04:34:30;;;;;;;5.57;4.10;;;18.00;1.00;;;;;;5091119;28;20474;-81
2021/08/18 04:36:58;;;;;;;5.17;4.50;;;18.10;1.00;;;;;;5091244;28;21031;-80
2021/08/18 04:39:28;;;;;;;8.10;4.73;;;17.90;1.00;;;;;;5089676;28;20688;-80
2021/08/18 04:41:56;;;;;;;7.10;4.50;;;18.00;1.00;;;;;;5091074;28;20495;-80
2021/08/18 04:44:24;;;;;;;5.23;3.43;;;18.00;1.00;;;;;;5090198;28;20881;-79
2021/08/18 04:46:52;;;;;;;7.27;3.90;;;18.10;1.00;;;;;;5091002;28;20449;-80
2021/08/18 04:49:20;;;;;;;5.40;3.93;;;18.10;1.00;;;;;;5089744;28;20624;-80
2021/08/18 04:51:48;;;;;;;8.70;3.17;;;18.00;1.00;;;;;;5091436;28;20726;-80
2021/08/18 04:54:16;;;;;;;4.83;3.30;;;18.20;1.00;;;;;;5089987;28;20449;-80
2021/08/18 04:56:46;;;;;;;5.23;3.37;;;18.20;1.00;;;;;;5091249;28;20458;-80
2021/08/18 04:59:14;;;;;;;7.10;3.70;;;18.10;1.00;;;;;;5088574;28;20462;-80
2021/08/18 05:01:42;;;;;;;6.93;3.50;;;18.10;1.00;;;;;;5072932;28;20492;-80
2021/08/18 05:04:11;;;;;;;7.20;3.67;;;18.20;1.00;;;;;;5089469;28;20450;-80
2021/08/18 05:06:39;;;;;;;6.10;4.10;;;18.30;1.00;;;;;;5090995;28;20485;-80
2021/08/18 05:09:07;;;;;;;6.57;3.97;;;18.30;1.00;;;;;;5088717;28;20545;-78
2021/08/18 05:11:35;;;;;;;4.90;2.90;;;18.30;1.00;;;;;;5090004;28;20441;-80
2021/08/18 05:14:05;;;;;;;6.13;3.93;;;18.30;1.00;;;;;;5089593;28;20457;-79
2021/08/18 05:16:33;;;;;;;6.03;3.53;;;18.40;1.00;;;;;;5072678;28;20527;-80
2021/08/18 05:19:01;;;;;;;5.27;3.50;;;18.50;1.00;;;;;;5090513;28;20469;-80
2021/08/18 05:21:30;;;;;;;5.50;3.40;;;18.40;1.00;;;;;;5090580;28;20801;-80
2021/08/18 05:23:58;;;;;;;5.17;3.37;;;18.40;1.00;;;;;;5089539;28;20453;-80
2021/08/18 05:26:26;;;;;;;4.67;2.80;;;18.30;1.00;;;;;;5090615;28;20972;-80
2021/08/18 05:28:54;;;;;;;3.87;3.37;;;18.30;1.00;;;;;;5089244;28;20995;-79
2021/08/18 05:31:24;;;;;;;5.80;3.80;;;18.30;1.00;;;;;;5072365;28;20452;-78
2021/08/18 05:33:52;;;;;;;4.13;3.20;;;18.30;1.00;;;;;;5097834;28;21045;-80
2021/08/18 05:36:21;;;;;;;5.60;3.80;;;18.20;1.00;;;;;;5092204;28;20941;-80
2021/08/18 05:38:49;;;;;;;4.03;3.40;;;18.30;1.00;;;;;;5089873;28;20464;-80
2021/08/18 05:41:17;;;;;;;3.87;2.83;;;18.40;1.00;;;;;;5071966;28;20464;-79
2021/08/18 05:43:45;;;;;;;4.30;2.93;;;18.40;1.00;;;;;;5089631;28;20463;-80
2021/08/18 05:46:13;;;;;;;6.50;3.50;;;18.30;1.00;;;;;;5090049;28;20786;-80
2021/08/18 05:48:43;;;;;;;6.13;4.00;;;18.20;1.00;;;;;;5089325;28;21052;-80
2021/08/18 05:51:11;;;;;;;3.83;3.00;;;18.20;1.00;;;;;;5089759;28;20943;-80
2021/08/18 05:53:39;;;;;;;6.20;3.73;;;18.20;1.00;;;;;;5089508;28;20960;-80
2021/08/18 05:56:07;;;;;;;6.03;3.70;;;18.40;1.00;;;;;;5090260;28;20456;-80
2021/08/18 05:58:35;;;;;;;8.50;3.53;;;18.40;1.00;;;;;;5089745;28;20878;-80
2021/08/18 06:01:04;;;;;;;4.73;3.17;;;18.40;1.00;;;;;;5071454;28;20544;-80
2021/08/18 06:03:32;;;;;;;5.83;3.80;;;18.40;1.00;;;;;;5089400;28;20477;-80
2021/08/18 06:06:02;;;;;;;3.67;3.37;;;18.40;1.00;;;;;;5089896;28;20448;-80
2021/08/18 06:08:30;;;;;;;7.10;3.23;;;18.20;1.00;;;;;;5088787;28;20430;-80
2021/08/18 06:10:58;;;;;;;6.47;3.40;;;18.30;1.00;;;;;;5090655;28;20494;-80
2021/08/18 06:13:26;;;;;;;3.93;2.70;;;18.20;1.00;;;;;;5093555;28;21085;-80
2021/08/18 06:15:54;;;;;;;5.70;3.70;;;18.30;1.00;;;;;;5093912;28;20461;-80
2021/08/18 06:18:22;;;;;;;8.00;2.93;;;18.30;1.00;;;;;;5093955;28;20987;-80
2021/08/18 06:20:51;;;;;;;3.80;2.90;;;18.40;1.00;;;;;;5093312;28;20453;-80
2021/08/18 06:23:23;;;;;;;3.60;3.00;;;18.40;1.00;;;;;;5093511;28;20465;-80
2021/08/18 06:25:53;;;;;;;4.30;3.30;;;18.40;1.00;;;;;;5093391;28;20461;-80
2021/08/18 06:28:22;;;;;;;4.67;3.10;;;18.60;1.00;;;;;;5094196;28;20456;-80
2021/08/18 06:30:50;;;;;;;4.33;3.10;;;18.40;1.00;;;;;;5093285;28;20442;-80
2021/08/18 06:33:18;;;;;;;4.63;2.90;;;18.40;1.00;;;;;;5094056;28;21076;-80
2021/08/18 06:35:46;;;;;;;5.07;3.47;;;18.50;1.00;;;;;;5093995;28;20449;-80
2021/08/18 06:38:14;;;;;;;4.13;3.00;;;18.40;1.00;;;;;;5075429;28;20437;-79
2021/08/18 06:40:46;;;;;;;3.37;2.37;;;18.40;1.00;;;;;;5092805;28;20433;-80
2021/08/18 06:43:15;;;;;;;4.30;2.83;;;18.40;1.00;;;;;;5093729;28;20806;-80
2021/08/18 06:45:43;;;;;;;4.20;3.30;;;18.30;1.00;;;;;;5093018;28;20446;-81
2021/08/18 06:48:11;;;;;;;2.90;2.00;;;18.40;1.00;;;;;;5075643;28;21010;-80
2021/08/18 06:50:39;;;;;;;2.77;2.40;;;18.40;1.00;;;;;;5074478;28;21177;-80
2021/08/18 06:53:07;;;;;;;3.20;2.90;;;18.30;1.00;;;;;;5093880;28;20464;-80
2021/08/18 06:55:35;;;;;;;3.40;2.40;;;18.40;1.00;;;;;;5092764;28;20483;-80
2021/08/18 06:58:05;;;;;;;5.43;3.27;;;18.50;1.00;;;;;;5094412;28;20441;-80
2021/08/18 07:00:33;;;;;;;3.80;2.87;;;18.60;1.00;;;;;;5092214;28;20565;-80
2021/08/18 07:03:01;;;;;;;3.17;2.63;;;18.70;1.00;;;;;;5093790;28;21011;-80
2021/08/18 07:05:32;;;;;;;4.20;2.80;;;18.80;1.00;;;;;;5092288;28;20483;-79
2021/08/18 07:08:01;;;;;;;3.07;2.30;;;18.90;1.00;;;;;;5061945;28;21246;-80
2021/08/18 07:10:29;;;;;;;5.57;2.70;;;19.00;1.00;;;;;;5053702;28;20500;-80
2021/08/18 07:12:57;;;;;;;2.80;2.07;;;18.90;1.00;;;;;;5071535;28;20450;-80
2021/08/18 07:15:26;;;;;;;5.70;2.13;;;18.90;1.00;;;;;;5079943;28;20484;-80
2021/08/18 07:17:55;;;;;;;2.17;1.93;;;18.80;1.00;;;;;;5093170;28;20776;-80
2021/08/18 07:20:23;;;;;;;3.93;2.40;;;18.80;1.00;;;;;;5073124;28;20887;-80
2021/08/18 07:22:51;;;;;;;3.50;2.50;;;18.80;1.00;;;;;;5092785;28;20815;-80
2021/08/18 07:25:20;;;;;;;2.83;2.20;;;19.00;1.00;;;;;;5073439;28;20449;-81
2021/08/18 07:27:48;;;;;;;3.07;2.40;;;19.10;1.00;;;;;;5092684;28;20971;-81
2021/08/18 07:30:16;;;;;;;3.70;2.20;;;19.10;1.00;;;;;;5091648;28;20449;-80
2021/08/18 07:32:45;;;;;;;4.23;2.87;;;19.20;1.00;;;;;;5093475;28;20522;-80
2021/08/18 07:35:14;;;;;;;4.37;2.50;;;19.10;1.00;;;;;;5092142;28;20507;-80
2021/08/18 07:37:42;;;;;;;4.37;2.60;;;19.20;1.00;;;;;;5093334;28;20483;-80
2021/08/18 07:40:11;;;;;;;2.80;2.20;;;19.20;1.00;;;;;;5092509;28;20473;-80
2021/08/18 07:42:39;;;;;;;2.93;1.90;;;19.10;1.00;;;;;;5092435;28;20862;-80
2021/08/18 07:45:09;;;;;;;2.97;2.10;;;19.20;1.00;;;;;;5074074;28;20537;-80
2021/08/18 07:47:37;;;;;;;2.07;1.90;;;19.20;1.00;;;;;;5074995;28;20450;-80
2021/08/18 07:50:08;;;;;;;5.60;2.10;;;19.20;1.00;;;;;;5091292;28;20446;-80
2021/08/18 07:52:36;;;;;;;2.13;1.93;;;19.20;1.00;;;;;;5074395;28;20465;-80
2021/08/18 07:55:06;;;;;;;2.87;1.47;;;19.20;1.00;;;;;;5091067;28;20442;-80
2021/08/18 07:57:34;;;;;;;2.10;1.40;;;19.00;1.00;;;;;;5074902;28;20503;-81
2021/08/18 08:00:04;;;;;;;1.27;1.17;;;19.10;1.00;;;;;;5074215;28;20892;-80
2021/08/18 08:02:32;;;;;;;2.10;1.57;;;19.20;1.00;;;;;;5074603;28;21085;-81
2021/08/18 08:05:07;;;;;;;1.27;1.10;;;19.20;1.00;;;;;;5073809;28;21146;-80
2021/08/18 08:07:35;;;;;;;1.73;1.10;;;19.40;1.00;;;;;;5092070;28;20812;-80
2021/08/18 08:10:05;;;;;;;1.00;0.90;;;19.50;1.00;;;;;;5091294;28;20426;-80
2021/08/18 08:12:33;;;;;;;0.90;0.90;;;19.40;1.00;;;;;;5090670;28;20494;-80
2021/08/18 08:15:01;;;;;;;0.77;0.77;;;19.40;1.00;;;;;;5091513;28;20520;-81
2021/08/18 08:17:29;;;;;;;1.00;0.90;;;19.40;1.00;;;;;;5092194;28;20430;-80
2021/08/18 08:19:57;;;;;;;0.87;0.80;;;19.30;1.00;;;;;;5091322;28;20507;-80
2021/08/18 08:22:27;;;;;;;1.43;0.90;;;19.30;1.00;;;;;;5092037;28;20473;-80
2021/08/18 08:24:55;;;;;;;1.20;1.10;;;19.40;1.00;;;;;;5071898;28;20442;-80
2021/08/18 08:27:23;;;;;;;1.07;0.97;;;19.40;1.00;;;;;;5071047;28;20454;-80
2021/08/18 08:29:51;;;;;;;9.30;3.03;;;19.50;1.00;;;;;;5053331;28;20537;-81
2021/08/18 08:32:19;;;;;;;1.10;1.00;;;19.50;1.00;;;;;;5070984;28;20500;-80
2021/08/18 08:34:48;;;;;;;0.50;0.50;;;19.70;1.00;;;;;;5070777;28;20443;-80
2021/08/18 08:37:17;;;;;;;0.70;0.60;;;19.60;1.00;;;;;;5070858;28;20439;-81
2021/08/18 08:39:47;;;;;;;0.70;0.70;;;19.60;1.00;;;;;;5090954;28;20461;-81
2021/08/18 08:42:16;;;;;;;0.90;0.60;;;19.70;1.00;;;;;;5108556;28;20464;-80
2021/08/18 08:44:45;;;;;;;0.53;0.50;;;19.70;1.00;;;;;;5112319;28;20877;-80
2021/08/18 08:47:13;;;;;;;1.97;0.60;;;19.80;1.00;;;;;;5111186;28;20441;-81
2021/08/18 08:49:41;;;;;;;0.80;0.67;;;19.90;1.00;;;;;;5111564;28;20490;-80
2021/08/18 08:52:09;;;;;;;0.53;0.53;;;19.90;1.00;;;;;;5111252;28;20502;-80
2021/08/18 08:54:39;;;;;;;5.87;1.77;;;19.90;1.00;;;;;;5113575;28;20847;-80
2021/08/18 08:57:08;;;;;;;1.27;0.70;;;20.00;1.00;;;;;;5105070;28;20507;-80
2021/08/18 08:59:37;;;;;;;0.60;0.60;;;19.80;99.90;;;;;;5092172;28;20937;-80
2021/08/18 09:02:07;;;;;;;0.80;0.70;;;19.70;1.00;;;;;;5091067;28;20791;-80
2021/08/18 09:04:37;;;;;;;1.30;0.70;;;19.80;1.00;;;;;;5092491;28;20449;-80
2021/08/18 09:07:11;;;;;;;0.80;0.80;;;19.90;1.00;;;;;;5077253;28;20466;-80
2021/08/18 09:09:41;;;;;;;0.77;0.70;;;19.80;1.00;;;;;;5070447;28;20451;-80
2021/08/18 09:12:13;;;;;;;0.60;0.60;;;19.70;99.90;;;;;;5069391;28;20446;-81
2021/08/18 09:14:43;;;;;;;0.70;0.60;;;19.70;99.90;;;;;;5082637;28;20468;-80
2021/08/18 09:17:29;;;;;;;1.10;1.00;;;19.70;1.00;;;;;;5090564;28;20452;-80
2021/08/18 09:20:03;;;;;;;0.83;0.60;;;19.90;1.00;;;;;;5091090;28;20448;-80
2021/08/18 09:22:35;;;;;;;0.40;0.40;;;19.90;99.90;;;;;;5091244;28;20526;-81
2021/08/18 09:25:16;;;;;;;0.70;0.70;;;19.90;99.90;;;;;;5091346;28;20445;-80
2021/08/18 09:27:48;;;;;;;0.70;0.70;;;19.90;99.90;;;;;;5091424;28;20437;-81
2021/08/18 09:30:23;;;;;;;0.97;0.60;;;19.90;99.90;;;;;;5090871;28;20442;-80
2021/08/18 09:32:51;;;;;;;0.83;0.50;;;19.90;1.00;;;;;;5070520;28;20537;-81
2021/08/18 09:35:22;;;;;;;1.17;0.80;;;19.80;99.90;;;;;;5052207;28;20465;-80
2021/08/18 09:37:56;;;;;;;0.50;0.50;;;19.90;1.00;;;;;;5052357;28;20839;-80
2021/08/18 09:40:26;;;;;;;2.13;0.60;;;20.00;99.90;;;;;;5069802;28;20970;-80
2021/08/18 09:43:09;;;;;;;2.50;0.70;;;20.10;99.90;;;;;;5052543;28;20471;-80
2021/08/18 09:45:39;;;;;;;0.80;0.50;;;20.20;99.90;;;;;;5069868;28;20446;-80
2021/08/18 09:48:11;;;;;;;0.90;0.50;;;20.30;99.90;;;;;;5077167;28;20470;-80
2021/08/18 09:50:45;;;;;;;1.87;0.67;;;20.40;99.90;;;;;;5089401;28;20426;-80
2021/08/18 09:53:15;;;;;;;0.80;0.60;;;20.50;99.90;;;;;;5091295;28;20710;-80
2021/08/18 09:55:58;;;;;;;0.83;0.77;;;20.50;99.90;;;;;;5090919;28;20473;-81
2021/08/18 09:58:31;;;;;;;0.70;0.60;;;20.60;99.90;;;;;;5091723;28;20452;-81
2021/08/18 10:01:00;;;;;;;0.60;0.60;;;20.60;99.90;;;;;;5072136;28;20523;-81
2021/08/18 10:03:29;;;;;;;0.77;0.73;;;20.70;99.90;;;;;;5072687;28;20468;-80
2021/08/18 10:05:58;;;;;;;0.53;0.53;;;20.70;99.90;;;;;;5081529;28;20437;-80
2021/08/18 10:08:26;;;;;;;0.50;0.50;;;20.60;99.90;;;;;;5091682;28;20512;-80
2021/08/18 10:10:55;;;;;;;0.50;0.50;;;20.60;99.90;;;;;;5089309;28;21013;-80
2021/08/18 10:13:24;;;;;;;0.70;0.60;;;20.50;99.90;;;;;;5071523;28;20522;-81
2021/08/18 10:15:54;;;;;;;0.93;0.60;;;20.50;99.90;;;;;;5090343;28;20477;-80
2021/08/18 10:18:33;;;;;;;0.53;0.53;;;20.50;99.90;;;;;;5090772;28;20461;-80
2021/08/18 10:21:06;;;;;;;0.50;0.50;;;20.50;99.90;;;;;;5089408;28;20826;-80
2021/08/18 10:23:42;;;;;;;0.60;0.57;;;20.50;99.90;;;;;;5072786;28;20507;-80
2021/08/18 10:26:49;;;;;;;0.50;0.50;;;20.60;99.90;;;;;;5072538;28;20477;-80
2021/08/18 10:29:30;;;;;;;0.87;0.87;;;20.50;99.90;;;;;;5090176;28;20448;-80
2021/08/18 10:32:02;;;;;;;0.80;0.70;;;20.50;99.90;;;;;;5073160;28;20868;-81
2021/08/18 10:34:35;;;;;;;0.93;0.70;;;20.50;99.90;;;;;;5072499;28;20453;-80
2021/08/18 10:37:06;;;;;;;0.60;0.60;;;20.60;99.90;;;;;;5091896;28;21012;-80
2021/08/18 10:39:39;;;;;;;0.70;0.50;;;20.70;99.90;;;;;;5090213;28;20524;-79
2021/08/18 10:42:10;;;;;;;0.70;0.70;;;20.80;99.90;;;;;;5091951;28;21041;-80
2021/08/18 10:44:43;;;;;;;0.70;0.53;;;20.90;99.90;;;;;;5090350;28;20938;-80
2021/08/18 10:47:20;;;;;;;0.53;0.53;;;21.00;99.90;;;;;;5091551;28;20445;-80
2021/08/18 10:49:50;;;;;;;1.63;0.70;;;21.10;99.90;;;;;;5073617;28;20503;-80
2021/08/18 10:52:54;;;;;;;0.50;0.50;;;21.10;99.90;;;;;;5090919;28;20799;-81
2021/08/18 10:55:31;;;;;;;0.87;0.60;;;21.00;99.90;;;;;;5087324;28;20453;-80
2021/08/18 10:58:01;;;;;;;0.50;0.50;;;20.90;99.90;;;;;;5073342;28;20724;-80
2021/08/18 11:00:40;;;;;;;0.87;0.60;;;20.90;99.90;;;;;;5073963;28;20443;-80
2021/08/18 11:03:23;;;;;;;0.80;0.60;;;21.00;99.90;;;;;;5073987;28;20490;-80
2021/08/18 11:05:52;;;;;;;0.60;0.50;;;21.00;99.90;;;;;;5086933;28;20445;-81
2021/08/18 11:08:22;;;;;;;0.47;0.47;;;21.10;99.90;;;;;;5094276;28;20443;-80
2021/08/18 11:11:16;;;;;;;0.60;0.50;;;21.10;99.90;;;;;;5094914;28;20451;-81
2021/08/18 11:13:50;;;;;;;0.60;0.60;;;21.10;99.90;;;;;;5093074;28;20474;-80
2021/08/18 11:16:23;;;;;;;4.67;0.60;;;21.20;99.90;;;;;;5094511;28;21026;-80
2021/08/18 11:18:55;;;;;;;0.50;0.50;;;21.20;99.90;;;;;;5094265;28;20502;-80
2021/08/18 11:21:27;;;;;;;0.60;0.60;;;21.10;99.90;;;;;;5094264;28;20986;-81
2021/08/18 11:23:59;;;;;;;0.50;0.50;;;21.10;99.90;;;;;;5094362;28;20471;-80
2021/08/18 11:26:29;;;;;;;0.87;0.40;;;21.20;99.90;;;;;;5094730;28;20530;-80
2021/08/18 11:29:01;;;;;;;0.50;0.50;;;21.30;99.90;;;;;;5094571;28;20525;-81
2021/08/18 11:31:35;;;;;;;0.63;0.60;;;21.30;99.90;;;;;;5093879;28;20501;-80
2021/08/18 11:34:06;;;;;;;0.60;0.60;;;21.40;99.90;;;;;;5093779;28;20812;-80
2021/08/18 11:36:44;;;;;;;0.60;0.57;;;21.40;99.90;;;;;;5093792;28;20957;-81
2021/08/18 11:39:12;;;;;;;0.60;0.50;;;21.40;99.90;;;;;;5093678;28;20483;-81
2021/08/18 11:41:42;;;;;;;0.50;0.50;;;21.50;99.90;;;;;;5093250;28;20480;-80
2021/08/18 11:44:17;;;;;;;0.60;0.60;;;21.40;99.90;;;;;;5093457;28;20451;-80
2021/08/18 11:46:45;;;;;;;0.50;0.50;;;21.40;99.90;;;;;;5075905;28;20453;-80
2021/08/18 11:49:15;;;;;;;0.50;0.50;;;21.40;99.90;;;;;;5110283;28;20449;-80
2021/08/18 11:51:48;;;;;;;0.80;0.80;;;21.40;99.90;;;;;;5113225;28;20429;-80
2021/08/18 11:54:16;;;;;;;0.50;0.50;;;21.30;99.90;;;;;;5114152;28;20441;-80
2021/08/18 11:56:45;;;;;;;0.57;0.57;;;21.30;99.90;;;;;;5094693;28;20448;-80
2021/08/18 11:59:16;;;;;;;0.50;0.50;;;21.40;99.90;;;;;;5113623;28;20856;-80
2021/08/18 12:01:44;;;;;;;0.50;0.50;;;21.50;99.90;;;;;;5113422;28;20531;-81
2021/08/18 12:04:14;;;;;;;0.60;0.50;;;21.50;99.90;;;;;;5088489;28;20479;-80
2021/08/18 12:06:42;;;;;;;0.60;0.60;;;21.40;99.90;;;;;;5073764;28;20502;-80
2021/08/18 12:09:21;;;;;;;0.60;0.60;;;21.40;99.90;;;;;;5073599;28;20452;-80
2021/08/18 12:11:49;;;;;;;0.60;0.60;;;21.40;99.90;;;;;;5091627;28;20446;-80
2021/08/18 12:14:21;;;;;;;0.67;0.60;;;21.60;99.90;;;;;;5076037;28;20442;-81
2021/08/18 12:16:59;;;;;;;0.60;0.60;;;21.70;99.90;;;;;;5092581;28;20464;-80
2021/08/18 12:19:29;;;;;;;2.00;0.70;;;21.80;99.90;;;;;;5075493;28;20817;-80
2021/08/18 12:22:13;;;;;;;0.50;0.50;;;21.80;99.90;;;;;;5073546;28;20479;-80
2021/08/18 12:24:44;;;;;;;0.70;0.63;;;21.90;99.90;;;;;;5094157;28;20843;-81
2021/08/18 12:27:15;;;;;;;0.70;0.70;;;21.90;99.90;;;;;;5094209;28;20445;-80
2021/08/18 12:29:44;;;;;;;0.50;0.50;;;22.00;99.90;;;;;;5093323;28;20436;-81
2021/08/18 12:32:14;;;;;;;0.50;0.50;;;21.90;99.90;;;;;;5092672;28;20463;-80
2021/08/18 12:34:45;;;;;;;0.60;0.60;;;22.00;99.90;;;;;;5092743;28;20433;-81
2021/08/18 12:37:19;;;;;;;1.53;0.60;;;22.00;99.90;;;;;;5074176;28;20539;-80
2021/08/18 12:39:54;;;;;;;0.60;0.60;;;22.00;99.90;;;;;;5091319;28;20444;-81
2021/08/18 12:42:25;;;;;;;0.70;0.70;;;22.00;99.90;;;;;;5092605;28;20482;-80
2021/08/18 12:45:09;;;;;;;0.50;0.50;;;22.00;99.90;;;;;;5092088;28;20442;-80
2021/08/18 12:47:39;;;;;;;0.70;0.70;;;22.10;99.90;;;;;;5075700;28;20444;-81
2021/08/18 12:50:11;;;;;;;0.70;0.60;;;22.20;99.90;;;;;;5090300;28;20736;-80
2021/08/18 12:52:39;;;;;;;0.60;0.60;;;22.30;99.90;;;;;;5092502;28;20530;-80
2021/08/18 12:55:08;;;;;;;0.70;0.60;;;22.30;99.90;;;;;;5091683;28;20455;-81
2021/08/18 12:57:36;;;;;;;0.80;0.70;;;22.30;99.90;;;;;;5092661;28;20453;-80
2021/08/18 13:00:08;;;;;;;0.67;0.67;;;22.40;99.90;;;;;;5090699;28;20449;-80
2021/08/18 13:02:36;;;;;;;0.70;0.70;;;22.20;99.90;;;;;;5092797;28;20990;-81
2021/08/18 13:05:06;;;;;;;0.70;0.70;;;22.20;99.90;;;;;;5076726;28;20957;-80
2021/08/18 13:07:35;;;;;;;1.00;0.90;;;22.30;99.90;;;;;;5072051;28;20452;-81